createdAt,value
2023-05-23T00:00:03.999Z,15.40
2023-05-23T00:01:03.974Z,15.00
2023-05-23T00:02:03.968Z,15.40
2023-05-23T00:03:04.011Z,15.30
2023-05-23T00:04:03.992Z,15.30
2023-05-23T00:05:03.936Z,15.60
2023-05-23T00:06:03.920Z,16.10
2023-05-23T00:07:03.913Z,15.90
2023-05-23T00:08:35.926Z,16.00
2023-05-23T00:09:03.900Z,16.40
2023-05-23T00:10:03.901Z,17.70
2023-05-23T00:11:03.896Z,17.40
2023-05-23T00:12:03.883Z,17.60
2023-05-23T00:13:03.919Z,17.60
2023-05-23T00:14:03.890Z,16.60
2023-05-23T00:15:03.874Z,17.00
2023-05-23T00:16:03.858Z,17.70
2023-05-23T00:17:03.925Z,18.40
2023-05-23T00:18:03.867Z,18.40
2023-05-23T00:19:03.870Z,18.50
2023-05-23T00:20:03.825Z,18.50
2023-05-23T00:21:03.817Z,18.50
2023-05-23T00:22:04.829Z,18.60
2023-05-23T00:23:03.830Z,18.00
2023-05-23T00:24:03.868Z,17.80
2023-05-23T00:25:03.781Z,17.70
2023-05-23T00:26:03.795Z,19.00
2023-05-23T00:27:03.800Z,17.40
2023-05-23T00:28:03.794Z,17.90
2023-05-23T00:29:03.753Z,17.90
2023-05-23T00:30:03.758Z,18.10
2023-05-23T00:31:03.762Z,17.80
2023-05-23T00:32:03.754Z,17.70
2023-05-23T00:33:03.750Z,18.30
2023-05-23T00:34:03.711Z,18.40
2023-05-23T00:35:03.729Z,17.70
2023-05-23T00:36:03.705Z,18.20
2023-05-23T00:37:03.728Z,17.80
2023-05-23T00:38:03.688Z,17.90
2023-05-23T00:39:03.679Z,17.00
2023-05-23T00:40:03.747Z,17.20
2023-05-23T00:41:03.676Z,17.00
2023-05-23T00:42:03.681Z,16.90
2023-05-23T00:43:03.647Z,17.10
2023-05-23T00:44:03.632Z,16.50
2023-05-23T00:45:03.650Z,17.10
2023-05-23T00:46:03.682Z,17.10
2023-05-23T00:47:03.645Z,17.00
2023-05-23T00:48:03.662Z,17.10
2023-05-23T00:49:03.613Z,17.20
2023-05-23T00:50:03.599Z,17.20
2023-05-23T00:51:03.832Z,17.20
2023-05-23T00:52:03.577Z,17.10
2023-05-23T00:53:03.569Z,17.20
2023-05-23T00:54:03.560Z,17.60
2023-05-23T00:55:03.571Z,17.20
2023-05-23T00:56:03.662Z,18.20
2023-05-23T00:57:03.549Z,17.10
2023-05-23T00:58:03.532Z,17.60
2023-05-23T00:59:03.527Z,17.10
2023-05-23T01:00:03.549Z,17.60
2023-05-23T01:01:03.542Z,17.40
2023-05-23T01:02:03.537Z,17.80
2023-05-23T01:03:03.525Z,17.40
2023-05-23T01:04:03.526Z,18.10
2023-05-23T01:05:03.529Z,18.60
2023-05-23T01:06:03.483Z,18.40
2023-05-23T01:07:03.468Z,18.70
2023-05-23T01:08:03.472Z,19.30
2023-05-23T01:09:03.458Z,19.40
2023-05-23T01:10:03.472Z,19.30
2023-05-23T01:11:03.439Z,18.20
2023-05-23T01:12:03.503Z,18.80
2023-05-23T01:13:03.412Z,18.60
2023-05-23T01:14:03.446Z,18.60
2023-05-23T01:15:04.423Z,19.00
2023-05-23T01:16:03.443Z,18.30
2023-05-23T01:17:03.378Z,18.10
2023-05-23T01:18:03.417Z,19.20
2023-05-23T01:19:03.436Z,19.40
2023-05-23T01:20:03.360Z,19.30
2023-05-23T01:21:03.352Z,19.70
2023-05-23T01:22:03.346Z,19.60
2023-05-23T01:23:03.334Z,19.40
2023-05-23T01:24:03.355Z,19.70
2023-05-23T01:25:03.323Z,19.70
2023-05-23T01:26:03.311Z,19.50
2023-05-23T01:27:03.314Z,19.30
2023-05-23T01:28:03.407Z,19.70
2023-05-23T01:29:03.309Z,19.40
2023-05-23T01:30:03.272Z,19.80
2023-05-23T01:31:03.279Z,19.80
2023-05-23T01:32:03.347Z,19.40
2023-05-23T01:33:03.368Z,19.60
2023-05-23T01:34:03.245Z,19.40
2023-05-23T01:35:03.237Z,20.00
2023-05-23T01:36:03.236Z,19.80
2023-05-23T01:37:03.220Z,19.40
2023-05-23T01:38:03.280Z,19.30
2023-05-23T01:39:03.214Z,20.00
2023-05-23T01:40:03.196Z,19.70
2023-05-23T01:41:03.182Z,19.20
2023-05-23T01:42:03.211Z,18.80
2023-05-23T01:43:03.197Z,19.80
2023-05-23T01:44:03.248Z,20.50
2023-05-23T01:45:03.165Z,20.40
2023-05-23T01:46:03.220Z,19.50
2023-05-23T01:47:03.176Z,19.90
2023-05-23T01:48:03.187Z,20.00
2023-05-23T01:49:03.130Z,20.30
2023-05-23T01:50:03.127Z,19.90
2023-05-23T01:51:03.119Z,20.60
2023-05-23T01:52:03.144Z,19.50
2023-05-23T01:53:03.103Z,19.60
2023-05-23T01:54:03.098Z,20.10
2023-05-23T01:55:03.090Z,19.50
2023-05-23T01:56:03.078Z,20.40
2023-05-23T01:57:03.110Z,19.60
2023-05-23T01:58:03.074Z,19.60
2023-05-23T01:59:03.074Z,19.80
2023-05-23T02:00:03.131Z,20.00
2023-05-23T02:01:03.114Z,19.60
2023-05-23T02:02:03.070Z,20.30
2023-05-23T02:03:03.116Z,20.50
2023-05-23T02:04:03.029Z,20.10
2023-05-23T02:05:03.024Z,19.80
2023-05-23T02:06:03.042Z,19.70
2023-05-23T02:07:02.993Z,19.30
2023-05-23T02:08:02.998Z,20.60
2023-05-23T02:09:02.999Z,20.20
2023-05-23T02:10:02.980Z,20.30
2023-05-23T02:11:03.000Z,19.40
2023-05-23T02:12:02.967Z,19.30
2023-05-23T02:13:02.966Z,19.20
2023-05-23T02:14:02.944Z,20.30
2023-05-23T02:15:02.972Z,20.10
2023-05-23T02:16:03.041Z,19.20
2023-05-23T02:17:03.002Z,18.50
2023-05-23T02:18:03.000Z,20.30
2023-05-23T02:19:02.961Z,20.40
2023-05-23T02:20:02.918Z,20.50
2023-05-23T02:21:02.899Z,20.50
2023-05-23T02:22:02.890Z,20.40
2023-05-23T02:23:02.894Z,19.70
2023-05-23T02:24:02.910Z,19.80
2023-05-23T02:25:02.916Z,20.10
2023-05-23T02:26:02.843Z,19.50
2023-05-23T02:27:02.838Z,19.90
2023-05-23T02:28:02.828Z,20.20
2023-05-23T02:29:02.863Z,19.80
2023-05-23T02:30:02.848Z,19.90
2023-05-23T02:31:02.890Z,21.00
2023-05-23T02:32:02.881Z,20.20
2023-05-23T02:33:02.816Z,21.10
2023-05-23T02:34:02.814Z,20.20
2023-05-23T02:35:02.802Z,20.40
2023-05-23T02:36:02.762Z,20.80
2023-05-23T02:37:02.766Z,21.80
2023-05-23T02:38:02.752Z,21.50
2023-05-23T02:39:02.774Z,20.80
2023-05-23T02:40:02.744Z,21.20
2023-05-23T02:41:02.736Z,21.10
2023-05-23T02:42:02.726Z,21.30
2023-05-23T02:43:02.711Z,21.80
2023-05-23T02:44:02.733Z,21.20
2023-05-23T02:45:02.732Z,21.20
2023-05-23T02:46:02.724Z,21.30
2023-05-23T02:47:02.685Z,21.60
2023-05-23T02:48:02.827Z,21.70
2023-05-23T02:49:02.700Z,21.40
2023-05-23T02:50:02.666Z,22.10
2023-05-23T02:51:02.661Z,22.90
2023-05-23T02:52:02.678Z,21.50
2023-05-23T02:53:02.844Z,22.00
2023-05-23T02:54:02.636Z,23.00
2023-05-23T02:55:02.646Z,26.90
2023-05-23T02:56:02.632Z,26.90
2023-05-23T02:57:02.612Z,28.10
2023-05-23T02:58:02.640Z,27.60
2023-05-23T02:59:02.607Z,28.40
2023-05-23T03:00:02.601Z,28.80
2023-05-23T03:01:02.585Z,27.40
2023-05-23T03:02:02.627Z,27.70
2023-05-23T03:03:02.635Z,26.60
2023-05-23T03:04:02.754Z,26.60
2023-05-23T03:05:02.649Z,25.50
2023-05-23T03:06:02.612Z,24.80
2023-05-23T03:07:03.069Z,25.20
2023-05-23T03:08:02.629Z,24.00
2023-05-23T03:09:02.623Z,23.40
2023-05-23T03:10:02.624Z,23.90
2023-05-23T03:11:02.599Z,23.70
2023-05-23T03:12:02.622Z,23.60
2023-05-23T03:13:02.592Z,23.30
2023-05-23T03:14:02.572Z,23.10
2023-05-23T03:15:02.573Z,22.80
2023-05-23T03:16:02.709Z,22.90
2023-05-23T03:17:02.578Z,21.50
2023-05-23T03:18:02.557Z,21.40
2023-05-23T03:19:02.596Z,21.60
2023-05-23T03:20:02.599Z,20.80
2023-05-23T03:21:02.560Z,20.80
2023-05-23T03:22:02.521Z,20.40
2023-05-23T03:23:02.516Z,20.50
2023-05-23T03:24:02.508Z,20.80
2023-05-23T03:25:02.495Z,20.40
2023-05-23T03:26:02.505Z,20.50
2023-05-23T03:27:02.472Z,20.50
2023-05-23T03:28:02.471Z,20.30
2023-05-23T03:29:02.457Z,20.60
2023-05-23T03:30:02.478Z,19.30
2023-05-23T03:31:02.485Z,19.60
2023-05-23T03:32:02.473Z,19.20
2023-05-23T03:33:02.463Z,19.30
2023-05-23T03:34:02.445Z,19.80
2023-05-23T03:35:02.445Z,18.90
2023-05-23T03:36:02.471Z,18.60
2023-05-23T03:37:02.419Z,19.10
2023-05-23T03:38:02.411Z,19.40
2023-05-23T03:39:02.387Z,19.20
2023-05-23T03:40:02.422Z,19.10
2023-05-23T03:41:02.381Z,18.70
2023-05-23T03:42:02.355Z,18.80
2023-05-23T03:43:02.363Z,19.10
2023-05-23T03:44:02.383Z,19.00
2023-05-23T03:45:02.374Z,18.60
2023-05-23T03:46:02.394Z,17.50
2023-05-23T03:47:02.353Z,18.40
2023-05-23T03:48:02.366Z,18.50
2023-05-23T03:49:02.359Z,18.40
2023-05-23T03:50:02.320Z,18.90
2023-05-23T03:51:02.296Z,18.70
2023-05-23T03:52:02.351Z,19.00
2023-05-23T03:53:02.283Z,18.10
2023-05-23T03:54:02.300Z,18.40
2023-05-23T03:55:02.300Z,18.30
2023-05-23T03:56:02.249Z,18.70
2023-05-23T03:57:02.238Z,18.20
2023-05-23T03:58:02.258Z,17.90
2023-05-23T03:59:02.270Z,18.70
2023-05-23T04:00:02.247Z,19.40
2023-05-23T04:01:02.341Z,18.90
2023-05-23T04:02:02.261Z,19.40
2023-05-23T04:03:02.333Z,18.70
2023-05-23T04:04:02.328Z,18.30
2023-05-23T04:05:02.223Z,18.00
2023-05-23T04:06:02.232Z,17.50
2023-05-23T04:07:02.166Z,18.30
2023-05-23T04:08:02.265Z,18.70
2023-05-23T04:09:02.164Z,18.80
2023-05-23T04:10:02.164Z,18.00
2023-05-23T04:11:02.134Z,18.50
2023-05-23T04:12:02.137Z,17.30
2023-05-23T04:13:02.154Z,17.40
2023-05-23T04:14:02.109Z,18.10
2023-05-23T04:15:02.109Z,17.70
2023-05-23T04:16:02.174Z,17.50
2023-05-23T04:17:02.119Z,16.90
2023-05-23T04:18:02.140Z,17.30
2023-05-23T04:19:04.832Z,16.70
2023-05-23T04:20:02.074Z,17.00
2023-05-23T04:21:02.067Z,17.50
2023-05-23T04:22:02.010Z,17.70
2023-05-23T04:23:01.994Z,17.70
2023-05-23T04:24:02.045Z,17.10
2023-05-23T04:25:01.967Z,17.10
2023-05-23T04:26:01.933Z,16.20
2023-05-23T04:27:01.948Z,15.90
2023-05-23T04:28:01.959Z,16.00
2023-05-23T04:29:01.908Z,16.00
2023-05-23T04:30:01.909Z,16.70
2023-05-23T04:31:01.914Z,16.80
2023-05-23T04:32:01.915Z,16.40
2023-05-23T04:33:01.932Z,16.50
2023-05-23T04:34:01.868Z,16.40
2023-05-23T04:35:01.849Z,16.60
2023-05-23T04:36:01.883Z,16.20
2023-05-23T04:37:01.915Z,15.80
2023-05-23T04:38:01.879Z,16.00
2023-05-23T04:39:01.850Z,15.80
2023-05-23T04:40:01.906Z,15.60
2023-05-23T04:41:01.903Z,15.50
2023-05-23T04:42:01.816Z,15.60
2023-05-23T04:43:01.810Z,15.50
2023-05-23T04:44:01.787Z,15.10
2023-05-23T04:45:01.793Z,15.80
2023-05-23T04:46:01.802Z,15.50
2023-05-23T04:47:01.888Z,15.50
2023-05-23T04:48:01.802Z,15.60
2023-05-23T04:49:01.769Z,15.60
2023-05-23T04:50:01.924Z,15.50
2023-05-23T04:51:01.773Z,15.30
2023-05-23T04:52:01.743Z,15.90
2023-05-23T04:53:01.749Z,15.10
2023-05-23T04:54:01.723Z,15.80
2023-05-23T04:55:01.817Z,15.50
2023-05-23T04:56:01.791Z,15.20
2023-05-23T04:57:02.700Z,15.30
2023-05-23T04:58:01.702Z,15.30
2023-05-23T04:59:01.696Z,15.50
2023-05-23T05:00:01.693Z,14.60
2023-05-23T05:01:01.694Z,14.60
2023-05-23T05:02:01.677Z,14.90
2023-05-23T05:03:01.695Z,14.70
2023-05-23T05:04:01.707Z,14.60
2023-05-23T05:05:01.670Z,15.20
2023-05-23T05:06:01.623Z,14.90
2023-05-23T05:07:01.625Z,14.70
2023-05-23T05:08:01.620Z,14.70
2023-05-23T05:09:01.633Z,14.60
2023-05-23T05:10:01.625Z,14.00
2023-05-23T05:11:01.609Z,13.90
2023-05-23T05:12:01.663Z,14.10
2023-05-23T05:13:01.573Z,13.90
2023-05-23T05:14:01.621Z,13.90
2023-05-23T05:15:01.558Z,14.30
2023-05-23T05:16:01.556Z,13.40
2023-05-23T05:17:01.640Z,13.90
2023-05-23T05:18:01.626Z,13.40
2023-05-23T05:19:01.551Z,14.50
2023-05-23T05:20:01.532Z,13.60
2023-05-23T05:21:01.537Z,13.40
2023-05-23T05:22:01.536Z,13.90
2023-05-23T05:23:01.493Z,13.40
2023-05-23T05:24:01.517Z,14.00
2023-05-23T05:25:01.494Z,13.20
2023-05-23T05:26:01.476Z,13.70
2023-05-23T05:27:01.480Z,13.20
2023-05-23T05:28:01.566Z,13.70
2023-05-23T05:29:01.484Z,13.70
2023-05-23T05:30:01.440Z,13.60
2023-05-23T05:31:01.515Z,13.90
2023-05-23T05:32:01.428Z,12.80
2023-05-23T05:33:01.508Z,12.50
2023-05-23T05:34:01.428Z,13.50
2023-05-23T05:35:01.407Z,12.80
2023-05-23T05:36:01.397Z,13.00
2023-05-23T05:37:01.397Z,13.50
2023-05-23T05:38:01.418Z,13.50
2023-05-23T05:39:01.389Z,13.40
2023-05-23T05:40:01.360Z,12.40
2023-05-23T05:41:01.362Z,12.60
2023-05-23T05:42:01.369Z,11.20
2023-05-23T05:43:01.366Z,11.30
2023-05-23T05:44:01.406Z,11.20
2023-05-23T05:45:01.324Z,11.20
2023-05-23T05:46:01.333Z,11.30
2023-05-23T05:47:01.409Z,11.10
2023-05-23T05:48:01.348Z,11.40
2023-05-23T05:49:01.316Z,11.00
2023-05-23T05:50:01.310Z,10.30
2023-05-23T05:51:01.299Z,9.50
2023-05-23T05:52:01.291Z,8.60
2023-05-23T05:53:01.260Z,9.00
2023-05-23T05:54:01.260Z,8.60
2023-05-23T05:55:01.254Z,8.60
2023-05-23T05:56:01.316Z,8.60
2023-05-23T05:57:01.256Z,8.40
2023-05-23T05:58:01.233Z,8.30
2023-05-23T05:59:01.227Z,8.50
2023-05-23T06:00:01.298Z,6.90
2023-05-23T06:01:01.233Z,7.50
2023-05-23T06:02:01.226Z,7.20
2023-05-23T06:03:01.291Z,7.10
2023-05-23T06:04:01.312Z,7.20
2023-05-23T06:05:01.316Z,7.20
2023-05-23T06:06:01.199Z,7.00
2023-05-23T06:07:01.153Z,6.70
2023-05-23T06:08:01.184Z,6.50
2023-05-23T06:09:01.151Z,5.70
2023-05-23T06:10:01.176Z,5.50
2023-05-23T06:11:01.155Z,6.00
2023-05-23T06:12:01.513Z,5.30
2023-05-23T06:13:01.113Z,5.20
2023-05-23T06:14:01.110Z,4.80
2023-05-23T06:15:01.123Z,4.80
2023-05-23T06:16:01.215Z,4.60
2023-05-23T06:17:01.085Z,4.80
2023-05-23T06:18:01.103Z,4.50
2023-05-23T06:19:01.081Z,4.40
2023-05-23T06:20:01.108Z,4.50
2023-05-23T06:21:01.046Z,4.40
2023-05-23T06:22:01.050Z,4.40
2023-05-23T06:23:01.038Z,4.40
2023-05-23T06:24:01.045Z,4.40
2023-05-23T06:25:01.051Z,4.20
2023-05-23T06:26:01.019Z,4.60
2023-05-23T06:27:01.008Z,4.60
2023-05-23T06:28:00.996Z,4.40
2023-05-23T06:29:01.000Z,4.40
2023-05-23T06:30:01.013Z,4.30
2023-05-23T06:31:00.973Z,4.10
2023-05-23T06:32:01.080Z,4.20
2023-05-23T06:33:01.978Z,4.10
2023-05-23T06:34:00.991Z,4.00
2023-05-23T06:35:00.961Z,4.20
2023-05-23T06:36:00.931Z,4.10
2023-05-23T06:37:00.922Z,4.30
2023-05-23T06:38:00.914Z,4.40
2023-05-23T06:39:00.927Z,4.50
2023-05-23T06:40:00.905Z,4.20
2023-05-23T06:41:00.899Z,3.90
2023-05-23T06:42:00.882Z,3.70
2023-05-23T06:43:00.886Z,3.80
2023-05-23T06:44:00.909Z,3.70
2023-05-23T06:45:00.869Z,3.50
2023-05-23T06:46:00.871Z,3.80
2023-05-23T06:47:00.844Z,4.20
2023-05-23T06:48:01.053Z,4.20
2023-05-23T06:49:13.687Z,4.40
2023-05-23T06:50:02.842Z,4.30
2023-05-23T06:51:00.835Z,4.00
2023-05-23T06:52:00.814Z,4.10
2023-05-23T06:53:00.835Z,4.40
2023-05-23T06:54:00.784Z,4.00
2023-05-23T06:55:00.785Z,4.00
2023-05-23T06:56:00.776Z,4.20
2023-05-23T06:57:00.768Z,4.20
2023-05-23T06:58:00.781Z,4.20
2023-05-23T06:59:00.750Z,4.00
2023-05-23T07:00:00.749Z,4.10
2023-05-23T07:01:00.777Z,4.20
2023-05-23T07:02:00.771Z,4.10
2023-05-23T07:03:00.804Z,4.30
2023-05-23T07:04:00.757Z,4.40
2023-05-23T07:05:00.741Z,4.30
2023-05-23T07:06:00.742Z,4.20
2023-05-23T07:07:00.719Z,4.50
2023-05-23T07:08:00.680Z,4.30
2023-05-23T07:09:00.692Z,4.30
2023-05-23T07:10:00.662Z,4.50
2023-05-23T07:11:00.661Z,4.60
2023-05-23T07:12:00.684Z,4.40
2023-05-23T07:13:00.643Z,4.50
2023-05-23T07:14:00.630Z,4.60
2023-05-23T07:15:00.624Z,4.60
2023-05-23T07:16:00.629Z,4.70
2023-05-23T07:17:00.696Z,5.00
2023-05-23T07:18:00.646Z,5.00
2023-05-23T07:19:00.598Z,5.00
2023-05-23T07:20:00.661Z,5.20
2023-05-23T07:21:00.601Z,5.20
2023-05-23T07:22:00.638Z,5.30
2023-05-23T07:23:00.560Z,5.30
2023-05-23T07:24:00.576Z,5.50
2023-05-23T07:25:00.560Z,5.50
2023-05-23T07:26:03.160Z,6.10
2023-05-23T07:27:01.552Z,6.30
2023-05-23T07:28:00.522Z,6.10
2023-05-23T07:29:00.538Z,5.90
2023-05-23T07:30:00.535Z,5.40
2023-05-23T07:31:00.558Z,5.40
2023-05-23T07:32:00.515Z,5.20
2023-05-23T07:33:00.536Z,5.50
2023-05-23T07:34:00.487Z,5.00
2023-05-23T07:35:00.554Z,5.50
2023-05-23T07:36:00.514Z,5.40
2023-05-23T07:37:00.464Z,5.20
2023-05-23T07:38:00.453Z,5.50
2023-05-23T07:39:00.453Z,5.30
2023-05-23T07:40:00.493Z,5.50
2023-05-23T07:41:10.667Z,5.50
2023-05-23T07:42:02.420Z,5.70
2023-05-23T07:43:00.412Z,5.80
2023-05-23T07:44:00.422Z,5.50
2023-05-23T07:45:00.442Z,5.40
2023-05-23T07:46:00.437Z,5.60
2023-05-23T07:47:00.505Z,5.40
2023-05-23T07:48:00.394Z,4.90
2023-05-23T07:49:00.389Z,5.00
2023-05-23T07:50:00.392Z,5.20
2023-05-23T07:51:00.363Z,4.80
2023-05-23T07:52:00.548Z,5.10
2023-05-23T07:53:00.339Z,4.80
2023-05-23T07:54:00.364Z,4.90
2023-05-23T07:55:00.348Z,5.00
2023-05-23T07:56:00.323Z,4.90
2023-05-23T07:57:00.323Z,4.90
2023-05-23T07:58:00.293Z,5.00
2023-05-23T07:59:00.324Z,5.20
2023-05-23T08:00:00.310Z,4.80
2023-05-23T08:01:00.279Z,5.00
2023-05-23T08:02:00.311Z,5.70
2023-05-23T08:03:00.302Z,5.10
2023-05-23T08:04:00.388Z,4.80
2023-05-23T08:05:00.238Z,4.90
2023-05-23T08:06:00.232Z,5.10
2023-05-23T08:07:05.598Z,5.40
2023-05-23T08:08:02.242Z,5.40
2023-05-23T08:09:00.467Z,4.90
2023-05-23T08:10:00.203Z,5.20
2023-05-23T08:11:00.204Z,5.10
2023-05-23T08:12:00.213Z,4.80
2023-05-23T08:13:00.231Z,4.40
2023-05-23T08:14:01.355Z,4.80
2023-05-23T08:15:00.172Z,4.60
2023-05-23T08:16:00.196Z,4.70
2023-05-23T08:17:00.286Z,4.90
2023-05-23T08:18:00.261Z,5.10
2023-05-23T08:19:00.258Z,4.70
2023-05-23T08:20:00.152Z,4.50
2023-05-23T08:21:00.126Z,4.50
2023-05-23T08:22:00.149Z,4.50
2023-05-23T08:23:00.189Z,4.30
2023-05-23T08:24:00.148Z,4.50
2023-05-23T08:25:00.112Z,4.20
2023-05-23T08:26:00.105Z,4.30
2023-05-23T08:27:00.126Z,4.40
2023-05-23T08:28:00.082Z,4.30
2023-05-23T08:29:00.069Z,4.20
2023-05-23T08:30:00.065Z,4.10
2023-05-23T08:31:00.026Z,4.50
2023-05-23T08:32:00.169Z,4.70
2023-05-23T08:33:00.042Z,4.40
2023-05-23T08:34:00.020Z,4.50
2023-05-23T08:35:00.026Z,4.70
2023-05-23T08:36:00.026Z,4.50
2023-05-23T08:37:00.012Z,4.90
2023-05-23T08:37:59.990Z,5.00
2023-05-23T08:38:59.969Z,4.80
2023-05-23T08:39:59.990Z,5.00
2023-05-23T08:40:59.980Z,5.00
2023-05-23T08:41:59.989Z,4.90
2023-05-23T08:42:59.971Z,5.10
2023-05-23T08:43:59.932Z,4.90
2023-05-23T08:44:59.926Z,5.30
2023-05-23T08:46:00.011Z,5.90
2023-05-23T08:46:59.913Z,5.70
2023-05-23T08:47:59.945Z,5.50
2023-05-23T08:48:59.907Z,5.90
2023-05-23T08:49:59.909Z,6.00
2023-05-23T08:50:59.908Z,5.90
2023-05-23T08:51:59.872Z,5.80
2023-05-23T08:52:59.893Z,6.00
2023-05-23T08:53:59.861Z,6.00
2023-05-23T08:54:59.857Z,6.60
2023-05-23T08:55:59.878Z,7.60
2023-05-23T08:56:59.839Z,7.60
2023-05-23T08:57:59.838Z,6.80
2023-05-23T08:58:59.845Z,6.80
2023-05-23T08:59:59.854Z,6.70
2023-05-23T09:00:59.836Z,6.80
2023-05-23T09:01:59.922Z,7.40
2023-05-23T09:02:59.815Z,7.20
2023-05-23T09:03:59.782Z,7.10
2023-05-23T09:04:59.877Z,7.20
2023-05-23T09:05:59.823Z,7.20
2023-05-23T09:06:59.769Z,7.50
2023-05-23T09:07:59.749Z,7.10
2023-05-23T09:08:59.745Z,7.10
2023-05-23T09:09:59.782Z,7.00
2023-05-23T09:10:59.730Z,7.10
2023-05-23T09:11:59.738Z,6.60
2023-05-23T09:12:59.721Z,6.80
2023-05-23T09:13:59.756Z,7.40
2023-05-23T09:14:59.734Z,7.50
2023-05-23T09:15:59.737Z,7.40
2023-05-23T09:17:00.479Z,7.40
2023-05-23T09:17:59.713Z,7.00
2023-05-23T09:18:59.757Z,7.50
2023-05-23T09:19:59.680Z,6.80
2023-05-23T09:20:59.680Z,7.90
2023-05-23T09:21:59.664Z,7.00
2023-05-23T09:23:01.603Z,6.80
2023-05-23T09:23:59.672Z,6.90
2023-05-23T09:24:59.619Z,6.90
2023-05-23T09:25:59.625Z,7.10
2023-05-23T09:26:59.608Z,7.20
2023-05-23T09:27:59.621Z,7.50
2023-05-23T09:28:59.616Z,7.60
2023-05-23T09:29:59.589Z,7.20
2023-05-23T09:30:59.575Z,7.00
2023-05-23T09:31:59.702Z,6.70
2023-05-23T09:33:01.404Z,6.80
2023-05-23T09:33:59.553Z,6.40
2023-05-23T09:34:59.562Z,6.40
2023-05-23T09:35:59.536Z,8.10
2023-05-23T09:36:59.526Z,7.50
2023-05-23T09:37:59.544Z,7.50
2023-05-23T09:39:01.441Z,7.80
2023-05-23T09:39:59.546Z,7.10
2023-05-23T09:40:59.506Z,7.10
2023-05-23T09:41:59.496Z,6.50
2023-05-23T09:42:59.507Z,6.30
2023-05-23T09:43:59.469Z,6.10
2023-05-23T09:45:00.249Z,5.80
2023-05-23T09:45:59.455Z,5.80
2023-05-23T09:46:59.486Z,5.70
2023-05-23T09:47:59.566Z,5.60
2023-05-23T09:48:59.441Z,5.70
2023-05-23T09:49:59.424Z,6.20
2023-05-23T09:51:00.568Z,7.60
2023-05-23T09:51:59.443Z,7.20
2023-05-23T09:52:59.431Z,7.80
2023-05-23T09:53:59.408Z,6.60
2023-05-23T09:54:59.443Z,6.50
2023-05-23T09:55:59.404Z,6.50
2023-05-23T09:56:59.433Z,6.10
2023-05-23T09:57:59.418Z,5.40
2023-05-23T09:58:59.377Z,5.50
2023-05-23T09:59:59.354Z,4.90
2023-05-23T10:00:59.391Z,5.40
2023-05-23T10:01:59.387Z,6.00
2023-05-23T10:02:59.405Z,6.20
2023-05-23T10:04:00.262Z,6.10
2023-05-23T10:05:00.311Z,6.00
2023-05-23T10:05:59.332Z,5.50
2023-05-23T10:06:59.310Z,5.20
2023-05-23T10:07:59.307Z,5.00
2023-05-23T10:08:59.282Z,5.40
2023-05-23T10:09:59.432Z,4.50
2023-05-23T10:10:59.292Z,4.90
2023-05-23T10:11:59.253Z,4.40
2023-05-23T10:12:59.264Z,4.00
2023-05-23T10:13:59.232Z,3.90
2023-05-23T10:14:59.236Z,4.30
2023-05-23T10:15:59.423Z,5.40
2023-05-23T10:16:59.271Z,5.00
2023-05-23T10:17:59.278Z,4.60
2023-05-23T10:18:59.239Z,4.20
2023-05-23T10:19:59.222Z,3.80
2023-05-23T10:20:59.210Z,3.60
2023-05-23T10:21:59.188Z,4.10
2023-05-23T10:22:59.173Z,3.90
2023-05-23T10:23:59.167Z,3.90
2023-05-23T10:24:59.184Z,3.90
2023-05-23T10:25:59.153Z,3.80
2023-05-23T10:26:59.129Z,3.80
2023-05-23T10:28:00.397Z,3.30
2023-05-23T10:28:59.124Z,3.10
2023-05-23T10:29:59.159Z,3.20
2023-05-23T10:30:59.124Z,3.00
2023-05-23T10:31:59.099Z,3.10
2023-05-23T10:32:59.186Z,3.10
2023-05-23T10:33:59.112Z,3.00
2023-05-23T10:34:59.125Z,2.80
2023-05-23T10:35:59.133Z,3.00
2023-05-23T10:36:59.062Z,3.50
2023-05-23T10:37:59.048Z,3.60
2023-05-23T10:38:59.093Z,3.20
2023-05-23T10:39:59.077Z,3.40
2023-05-23T10:40:59.036Z,3.50
2023-05-23T10:41:59.017Z,3.30
2023-05-23T10:42:59.026Z,3.40
2023-05-23T10:43:59.029Z,3.50
2023-05-23T10:44:59.646Z,3.60
2023-05-23T10:45:59.063Z,2.90
2023-05-23T10:46:59.044Z,3.60
2023-05-23T10:47:59.035Z,3.80
2023-05-23T10:48:59.030Z,4.00
2023-05-23T10:49:58.959Z,3.30
2023-05-23T10:50:58.951Z,3.20
2023-05-23T10:51:58.952Z,3.00
2023-05-23T10:52:58.965Z,2.90
2023-05-23T10:53:58.925Z,3.30
2023-05-23T10:54:58.922Z,2.70
2023-05-23T10:55:58.910Z,2.70
2023-05-23T10:56:58.902Z,2.70
2023-05-23T10:57:59.933Z,2.70
2023-05-23T10:58:58.917Z,2.50
2023-05-23T10:59:58.901Z,2.70
2023-05-23T11:00:58.877Z,2.70
2023-05-23T11:01:58.915Z,3.50
2023-05-23T11:02:58.946Z,2.70
2023-05-23T11:03:58.915Z,2.70
2023-05-23T11:04:59.854Z,2.60
2023-05-23T11:05:58.838Z,2.80
2023-05-23T11:06:58.851Z,2.80
2023-05-23T11:07:58.822Z,2.80
2023-05-23T11:08:58.806Z,2.60
2023-05-23T11:09:58.799Z,2.50
2023-05-23T11:10:58.803Z,2.50
2023-05-23T11:11:58.823Z,2.60
2023-05-23T11:12:58.793Z,2.20
2023-05-23T11:13:58.775Z,2.10
2023-05-23T11:14:58.768Z,2.50
2023-05-23T11:15:58.803Z,2.20
2023-05-23T11:16:58.782Z,2.10
2023-05-23T11:17:58.817Z,2.20
2023-05-23T11:18:58.773Z,1.90
2023-05-23T11:19:58.767Z,1.80
2023-05-23T11:20:58.771Z,1.70
2023-05-23T11:21:58.717Z,1.90
2023-05-23T11:22:58.693Z,1.90
2023-05-23T11:23:58.707Z,1.90
2023-05-23T11:24:58.691Z,1.80
2023-05-23T11:25:58.707Z,1.80
2023-05-23T11:26:58.678Z,1.90
2023-05-23T11:27:58.677Z,1.70
2023-05-23T11:28:58.652Z,1.80
2023-05-23T11:29:58.648Z,2.00
2023-05-23T11:30:58.662Z,2.10
2023-05-23T11:31:58.705Z,1.80
2023-05-23T11:32:59.686Z,1.50
2023-05-23T11:33:58.622Z,1.80
2023-05-23T11:34:58.636Z,1.40
2023-05-23T11:35:58.626Z,1.40
2023-05-23T11:36:58.594Z,1.30
2023-05-23T11:37:58.588Z,1.30
2023-05-23T11:38:58.589Z,1.30
2023-05-23T11:39:58.616Z,1.40
2023-05-23T11:40:58.572Z,1.10
2023-05-23T11:41:58.567Z,1.20
2023-05-23T11:42:58.546Z,1.20
2023-05-23T11:43:58.549Z,1.40
2023-05-23T11:44:58.560Z,1.40
2023-05-23T11:45:58.557Z,1.30
2023-05-23T11:46:58.528Z,1.10
2023-05-23T11:47:58.606Z,1.10
2023-05-23T11:48:58.543Z,1.20
2023-05-23T11:49:58.532Z,1.20
2023-05-23T11:50:58.496Z,1.20
2023-05-23T11:51:58.498Z,1.10
2023-05-23T11:52:58.476Z,1.30
2023-05-23T11:53:58.494Z,1.40
2023-05-23T11:55:02.722Z,1.50
2023-05-23T11:55:59.464Z,1.30
2023-05-23T11:56:58.459Z,1.40
2023-05-23T11:57:58.437Z,1.50
2023-05-23T11:58:58.461Z,1.40
2023-05-23T11:59:58.426Z,1.40
2023-05-23T12:00:58.429Z,1.40
2023-05-23T12:01:58.400Z,1.80
2023-05-23T12:02:58.504Z,1.70
2023-05-23T12:03:58.509Z,1.90
2023-05-23T12:04:58.434Z,1.40
2023-05-23T12:05:58.383Z,1.40
2023-05-23T12:06:58.396Z,1.90
2023-05-23T12:07:58.464Z,3.90
2023-05-23T12:09:32.441Z,1.90
2023-05-23T12:09:58.350Z,2.00
2023-05-23T12:10:58.341Z,1.40
2023-05-23T12:11:58.318Z,1.60
2023-05-23T12:12:58.386Z,5.20
2023-05-23T12:13:58.310Z,2.60
2023-05-23T12:14:58.319Z,1.50
2023-05-23T12:15:58.307Z,1.50
2023-05-23T12:16:58.316Z,1.70
2023-05-23T12:17:58.347Z,1.90
2023-05-23T12:18:58.312Z,1.70
2023-05-23T12:19:58.267Z,6.20
2023-05-23T12:20:58.258Z,2.40
2023-05-23T12:21:58.281Z,2.40
2023-05-23T12:22:58.242Z,3.10
2023-05-23T12:23:58.247Z,2.30
2023-05-23T12:24:58.219Z,1.80
2023-05-23T12:25:58.244Z,2.00
2023-05-23T12:26:58.242Z,3.00
2023-05-23T12:27:58.201Z,2.30
2023-05-23T12:28:58.224Z,1.90
2023-05-23T12:29:58.177Z,2.40
2023-05-23T12:30:58.189Z,2.40
2023-05-23T12:31:58.207Z,5.40
2023-05-23T12:32:58.218Z,2.30
2023-05-23T12:33:58.180Z,2.20
2023-05-23T12:34:58.141Z,2.90
2023-05-23T12:35:58.158Z,2.60
2023-05-23T12:37:10.333Z,2.90
2023-05-23T12:38:00.122Z,2.80
2023-05-23T12:38:58.129Z,2.60
2023-05-23T12:39:58.118Z,2.80
2023-05-23T12:40:58.118Z,3.20
2023-05-23T12:41:58.084Z,3.10
2023-05-23T12:42:58.093Z,3.20
2023-05-23T12:43:58.074Z,3.70
2023-05-23T12:44:58.069Z,4.10
2023-05-23T12:45:58.101Z,3.80
2023-05-23T12:46:58.123Z,3.90
2023-05-23T12:47:58.075Z,4.10
2023-05-23T12:48:58.034Z,4.90
2023-05-23T12:49:58.039Z,4.90
2023-05-23T12:50:58.052Z,5.20
2023-05-23T12:51:58.032Z,4.80
2023-05-23T12:52:58.012Z,5.20
2023-05-23T12:53:58.017Z,5.50
2023-05-23T12:54:58.031Z,5.20
2023-05-23T12:55:58.022Z,5.10
2023-05-23T12:56:57.996Z,5.20
2023-05-23T12:57:57.995Z,4.90
2023-05-23T12:58:57.972Z,5.00
2023-05-23T12:59:57.992Z,4.80
2023-05-23T13:00:57.981Z,4.80
2023-05-23T13:01:57.950Z,5.00
2023-05-23T13:02:58.055Z,5.60
2023-05-23T13:03:58.045Z,5.30
2023-05-23T13:04:57.947Z,5.50
2023-05-23T13:05:57.935Z,5.80